Time;durP1;ratioP1;P1;durP2;ratioP2;P2;SDS_P1;SDS_P2;PMS_P1;PMS_P2;Temp;Humidity;BMP_temperature;BMP_pressure;BME280_temperature;BME280_humidity;BME280_pressure;Samples;Min_cycle;Max_cycle;Signal;HPM_P1;HPM_P2
2021/07/05 00:00:48;;;;;;;10.40;4.00;;;;;;;16.24;78.56;101053.94;4991765;28;20046;-67
2021/07/05 00:03:13;;;;;;;10.43;3.67;;;;;;;16.21;78.39;101048.84;5009260;28;20466;-67
2021/07/05 00:05:38;;;;;;;7.63;3.40;;;;;;;16.26;78.17;101046.78;4995171;28;20211;-67
2021/07/05 00:08:04;;;;;;;5.88;2.88;;;;;;;16.27;78.27;101042.34;4994196;28;20587;-67
2021/07/05 00:10:30;;;;;;;8.02;2.92;;;;;;;16.28;77.75;101039.59;5009433;28;20178;-67
2021/07/05 00:12:56;;;;;;;6.55;2.60;;;;;;;16.24;77.48;101042.53;4990784;28;20041;-67
2021/07/05 00:15:27;;;;;;;8.70;3.38;;;;;;;16.16;77.62;101028.84;5004767;28;20109;-67
2021/07/05 00:17:55;;;;;;;7.18;3.00;;;;;;;16.13;77.80;101036.00;5002406;28;20238;-67
2021/07/05 00:20:21;;;;;;;10.50;3.00;;;;;;;16.10;77.99;101035.28;4991265;28;20109;-67
2021/07/05 00:22:47;;;;;;;9.43;2.90;;;;;;;16.07;78.14;101036.31;5000104;28;20036;-67
2021/07/05 00:25:13;;;;;;;12.38;3.28;;;;;;;16.08;78.29;101037.19;5008338;28;20026;-67
2021/07/05 00:27:39;;;;;;;9.88;2.92;;;;;;;16.07;77.40;101036.31;5007315;28;20068;-67
2021/07/05 00:30:05;;;;;;;16.60;2.78;;;;;;;16.05;77.46;101032.91;5021203;28;20031;-67
2021/07/05 00:32:30;;;;;;;10.43;3.10;;;;;;;16.03;77.22;101037.41;4989450;28;20476;-67
2021/07/05 00:34:56;;;;;;;12.15;3.00;;;;;;;16.03;77.67;101039.22;4987409;28;20041;-66
2021/07/05 00:37:21;;;;;;;11.75;3.83;;;;;;;15.97;77.70;101032.47;4994088;28;20021;-66
2021/07/05 00:39:47;;;;;;;12.48;3.30;;;;;;;15.93;76.59;101034.41;5007921;28;20079;-66
2021/07/05 00:42:12;;;;;;;11.07;3.10;;;;;;;15.91;76.98;101030.97;5006447;28;20028;-66
2021/07/05 00:44:37;;;;;;;15.88;3.20;;;;;;;15.86;76.81;101043.59;4998732;28;20022;-67
2021/07/05 00:47:03;;;;;;;13.82;3.03;;;;;;;15.81;76.64;101032.38;5003584;28;20255;-67
2021/07/05 00:49:28;;;;;;;10.20;3.60;;;;;;;15.85;76.01;101026.03;5000178;28;20506;-66
2021/07/05 00:51:54;;;;;;;17.77;3.22;;;;;;;15.86;75.90;101017.13;4988719;28;20026;-65
2021/07/05 00:54:19;;;;;;;10.52;2.70;;;;;;;15.82;75.83;101021.72;5003059;28;20507;-67
2021/07/05 00:56:45;;;;;;;15.48;3.97;;;;;;;15.77;76.07;101007.03;5014089;28;20030;-67
2021/07/05 00:59:10;;;;;;;22.08;3.55;;;;;;;15.70;76.21;101013.56;4999749;28;20071;-67
2021/07/05 01:01:35;;;;;;;14.90;3.22;;;;;;;15.68;76.03;101020.69;5007214;28;20029;-67
2021/07/05 01:04:01;;;;;;;17.50;3.47;;;;;;;15.65;76.31;101017.31;5008535;28;20061;-66
2021/07/05 01:06:27;;;;;;;14.38;3.00;;;;;;;15.62;76.34;101022.72;5006563;28;20060;-66
2021/07/05 01:08:53;;;;;;;11.27;3.20;;;;;;;15.62;76.87;101013.97;5006654;28;20072;-67
2021/07/05 01:11:21;;;;;;;18.52;3.67;;;;;;;15.65;76.13;101014.66;5019096;28;20034;-68
2021/07/05 01:13:47;;;;;;;11.45;3.20;;;;;;;15.59;75.40;101014.97;5003599;28;20018;-66
2021/07/05 01:16:12;;;;;;;11.25;4.00;;;;;;;15.61;74.79;101013.09;5003551;28;20029;-67
2021/07/05 01:18:38;;;;;;;14.10;3.50;;;;;;;15.59;74.64;101009.69;4998780;28;20046;-67
2021/07/05 01:21:03;;;;;;;12.98;3.55;;;;;;;15.58;74.59;101007.09;4994779;28;20049;-67
2021/07/05 01:23:29;;;;;;;15.23;3.53;;;;;;;15.58;74.71;100999.16;4991180;28;20014;-67
2021/07/05 01:25:54;;;;;;;11.38;3.40;;;;;;;15.55;74.23;100997.53;5013282;28;20034;-67
2021/07/05 01:28:19;;;;;;;14.25;3.85;;;;;;;15.58;74.07;100996.53;5002944;28;20026;-66
2021/07/05 01:30:45;;;;;;;10.57;3.40;;;;;;;15.57;74.23;101003.63;4986517;28;20031;-66
2021/07/05 01:33:11;;;;;;;11.32;3.95;;;;;;;15.54;74.09;101011.72;4988056;28;20547;-67
2021/07/05 01:35:36;;;;;;;19.30;4.30;;;;;;;15.50;74.00;101010.13;4987387;28;20022;-66
2021/07/05 01:38:02;;;;;;;13.85;3.85;;;;;;;15.48;74.55;101006.75;4998965;28;20414;-67
2021/07/05 01:40:28;;;;;;;21.83;4.50;;;;;;;15.46;74.40;101000.66;5002758;28;20042;-67
2021/07/05 01:42:57;;;;;;;14.38;3.80;;;;;;;15.45;75.14;101007.72;4987934;28;20111;-66
2021/07/05 01:45:27;;;;;;;19.73;4.70;;;;;;;15.41;75.24;100994.75;4988995;28;20486;-67
2021/07/05 01:47:52;;;;;;;11.75;3.50;;;;;;;15.46;75.01;101003.31;5006263;28;20052;-66
2021/07/05 01:50:18;;;;;;;18.73;4.10;;;;;;;15.44;75.35;100986.66;5006880;28;20026;-67
2021/07/05 01:52:43;;;;;;;16.60;4.00;;;;;;;15.42;75.45;100992.03;5008496;28;20100;-67
2021/07/05 01:55:09;;;;;;;18.33;4.35;;;;;;;15.45;75.23;100988.38;5006526;28;20033;-66
2021/07/05 01:57:36;;;;;;;16.45;3.97;;;;;;;15.39;75.50;100986.88;5006337;28;20030;-67
2021/07/05 02:00:08;;;;;;;20.20;4.25;;;;;;;15.32;75.80;100989.00;4996983;28;20025;-67
2021/07/05 02:02:33;;;;;;;15.20;4.07;;;;;;;15.29;76.18;100980.38;5001012;28;20379;-66
2021/07/05 02:04:59;;;;;;;18.60;3.72;;;;;;;15.24;75.82;100977.09;4996549;28;20022;-67
2021/07/05 02:07:24;;;;;;;22.08;4.00;;;;;;;15.19;76.37;100974.69;5005598;28;20498;-67
2021/07/05 02:09:50;;;;;;;13.85;4.00;;;;;;;15.19;76.34;100974.69;4994542;28;20022;-67
2021/07/05 02:12:15;;;;;;;15.85;4.97;;;;;;;15.19;76.57;100982.63;4994257;28;20109;-67
2021/07/05 02:14:41;;;;;;;17.25;4.20;;;;;;;15.23;76.81;100992.13;4999619;28;20018;-67
2021/07/05 02:17:09;;;;;;;20.27;4.63;;;;;;;15.19;76.74;100990.53;4997941;28;20022;-67
2021/07/05 02:19:35;;;;;;;14.02;4.28;;;;;;;15.16;76.97;100990.72;4993053;28;20526;-66
2021/07/05 02:22:00;;;;;;;13.70;4.32;;;;;;;15.17;77.17;100989.78;5006826;28;20094;-66
2021/07/05 02:24:26;;;;;;;23.65;4.50;;;;;;;15.16;77.65;100993.34;5006549;28;20022;-66
2021/07/05 02:26:52;;;;;;;21.60;5.13;;;;;;;15.07;77.59;100996.44;4992473;28;20261;-66
2021/07/05 02:29:17;;;;;;;12.43;4.07;;;;;;;15.07;77.50;100988.50;5005621;28;20476;-67
2021/07/05 02:31:43;;;;;;;16.38;4.53;;;;;;;15.07;77.89;100992.03;5004525;28;20037;-67
2021/07/05 02:34:08;;;;;;;19.25;4.90;;;;;;;15.04;78.27;100983.41;4987421;28;20030;-67
2021/07/05 02:36:34;;;;;;;12.43;4.80;;;;;;;15.04;78.27;100981.59;4998978;28;20022;-67
2021/07/05 02:38:59;;;;;;;17.85;4.32;;;;;;;15.01;78.32;100984.41;5001477;28;20026;-66
2021/07/05 02:41:24;;;;;;;17.73;4.45;;;;;;;14.99;77.77;100979.16;4998270;28;20029;-67
2021/07/05 02:43:50;;;;;;;12.88;4.35;;;;;;;14.97;78.22;100975.78;5006339;28;20068;-67
2021/07/05 02:46:15;;;;;;;15.73;5.03;;;;;;;14.99;78.75;100979.16;5006896;28;20109;-66
2021/07/05 02:48:41;;;;;;;14.52;4.28;;;;;;;15.06;77.88;100981.50;4991603;28;20076;-66
2021/07/05 02:51:08;;;;;;;17.23;4.63;;;;;;;15.02;77.73;100978.19;4993925;28;20022;-66
2021/07/05 02:53:33;;;;;;;16.27;4.45;;;;;;;14.98;77.83;100977.50;4992458;28;20053;-66
2021/07/05 02:55:59;;;;;;;12.63;4.13;;;;;;;14.97;77.76;100974.91;5020584;28;20069;-66
2021/07/05 02:58:24;;;;;;;21.42;5.57;;;;;;;14.99;77.77;100968.59;4994143;28;20089;-67
2021/07/05 03:00:53;;;;;;;15.73;4.15;;;;;;;14.97;77.41;100970.50;5016111;28;20375;-67
2021/07/05 03:03:18;;;;;;;15.48;4.60;;;;;;;15.01;77.35;100979.97;4995926;28;20018;-67
2021/07/05 03:05:44;;;;;;;16.73;4.50;;;;;;;14.99;77.43;100979.16;4994447;28;20025;-67
2021/07/05 03:08:09;;;;;;;12.25;3.95;;;;;;;14.99;77.40;100978.31;5003128;28;20034;-65
2021/07/05 03:10:36;;;;;;;18.25;4.03;;;;;;;14.96;77.97;100979.34;4990564;28;20114;-66
2021/07/05 03:13:04;;;;;;;20.73;5.03;;;;;;;14.96;77.02;100962.66;5003927;28;20102;-68
2021/07/05 03:15:29;;;;;;;19.70;4.30;;;;;;;14.94;76.75;100970.63;4990626;28;20054;-67
2021/07/05 03:17:55;;;;;;;13.23;4.40;;;;;;;14.91;76.93;100965.50;4989190;28;20065;-67
2021/07/05 03:20:23;;;;;;;16.38;5.00;;;;;;;14.90;77.12;100961.16;4989963;28;20103;-67
2021/07/05 03:22:50;;;;;;;18.90;5.25;;;;;;;14.92;77.04;100966.34;5002343;28;20029;-66
2021/07/05 03:25:18;;;;;;;13.77;4.78;;;;;;;14.91;77.08;100965.50;5008029;28;20491;-68
2021/07/05 03:27:44;;;;;;;18.55;4.80;;;;;;;14.87;76.74;100974.50;5009709;28;20022;-67
2021/07/05 03:30:11;;;;;;;14.70;4.72;;;;;;;14.88;76.82;100970.94;4993969;28;20022;-67
2021/07/05 03:32:37;;;;;;;15.57;4.40;;;;;;;14.88;76.94;100976.22;5006384;28;20034;-68
2021/07/05 03:35:07;;;;;;;16.85;4.95;;;;;;;14.89;76.69;100974.44;5015239;28;20075;-67
2021/07/05 03:37:32;;;;;;;11.98;4.47;;;;;;;14.87;76.66;100981.56;5008583;28;20026;-68
2021/07/05 03:39:57;;;;;;;21.85;5.68;;;;;;;14.74;77.32;100981.31;5009430;28;20026;-67
2021/07/05 03:42:23;;;;;;;15.85;4.90;;;;;;;14.73;77.34;100984.88;5003657;28;20030;-67
2021/07/05 03:44:48;;;;;;;26.80;5.40;;;;;;;14.74;77.60;100994.53;5013901;28;20030;-67
2021/07/05 03:47:13;;;;;;;22.50;5.70;;;;;;;14.72;76.93;100985.81;5000395;28;20018;-68
2021/07/05 03:49:40;;;;;;;24.00;5.38;;;;;;;14.68;77.42;100985.09;5009891;28;20052;-66
2021/07/05 03:52:05;;;;;;;16.40;5.55;;;;;;;14.72;76.61;100989.28;5017586;28;20163;-66
2021/07/05 03:54:30;;;;;;;17.48;5.25;;;;;;;14.67;77.13;100983.38;5003038;28;20068;-67
2021/07/05 03:56:56;;;;;;;17.33;5.03;;;;;;;14.67;77.13;100983.38;4998405;28;20030;-66
2021/07/05 03:59:21;;;;;;;21.83;5.20;;;;;;;14.62;76.95;100980.91;5007828;28;20096;-68
2021/07/05 04:01:47;;;;;;;17.90;5.28;;;;;;;14.65;76.82;100980.81;4996132;28;20086;-67
2021/07/05 04:04:12;;;;;;;20.00;5.43;;;;;;;14.63;76.89;100974.72;5000434;28;20471;-67
2021/07/05 04:06:37;;;;;;;19.77;5.63;;;;;;;14.63;76.65;100974.72;5003995;28;20033;-67
2021/07/05 04:09:04;;;;;;;17.23;5.40;;;;;;;14.64;77.03;100975.59;5005073;28;20028;-66
2021/07/05 04:11:31;;;;;;;19.23;5.25;;;;;;;14.65;77.15;100964.13;5001982;28;20380;-66
2021/07/05 04:13:56;;;;;;;21.95;5.18;;;;;;;14.71;76.55;100966.50;5003353;28;20091;-67
2021/07/05 04:16:21;;;;;;;19.27;5.30;;;;;;;14.69;76.37;100955.13;5020966;28;20471;-67
2021/07/05 04:18:47;;;;;;;20.13;5.70;;;;;;;14.65;77.08;100957.06;5000757;28;20075;-66
2021/07/05 04:21:12;;;;;;;19.88;4.93;;;;;;;14.65;76.46;100964.97;5003674;28;20014;-67
2021/07/05 04:23:37;;;;;;;18.17;5.22;;;;;;;14.67;76.48;100957.84;5005442;28;20403;-66
2021/07/05 04:26:02;;;;;;;18.70;5.95;;;;;;;14.65;76.66;100943.03;4998697;28;20048;-66
2021/07/05 04:28:29;;;;;;;23.17;4.82;;;;;;;14.65;76.21;100945.66;5005832;28;20033;-67
2021/07/05 04:30:55;;;;;;;25.17;6.00;;;;;;;14.66;76.49;100945.59;4996043;28;20080;-67
2021/07/05 04:33:20;;;;;;;22.42;5.53;;;;;;;14.61;76.76;100936.13;5007579;28;20030;-67
2021/07/05 04:35:45;;;;;;;28.00;5.22;;;;;;;14.59;75.96;100936.22;5023726;28;20470;-67
2021/07/05 04:38:11;;;;;;;18.60;5.45;;;;;;;14.59;76.50;100944.13;4995570;28;20030;-67
2021/07/05 04:40:39;;;;;;;24.42;5.32;;;;;;;14.63;76.03;100944.84;4992434;28;20010;-67
2021/07/05 04:43:05;;;;;;;19.08;5.50;;;;;;;14.62;76.41;100948.41;5002181;28;20305;-67
2021/07/05 04:45:32;;;;;;;18.65;5.25;;;;;;;14.61;76.32;100944.91;4984148;28;20450;-67
2021/07/05 04:48:00;;;;;;;14.35;4.82;;;;;;;14.67;76.14;100942.00;5018646;28;20071;-68
2021/07/05 04:50:25;;;;;;;23.25;6.15;;;;;;;14.65;75.63;100941.22;5015758;28;20446;-67
2021/07/05 04:52:51;;;;;;;16.33;5.57;;;;;;;14.63;76.17;100939.56;5006439;28;20037;-66
2021/07/05 04:55:18;;;;;;;17.90;4.60;;;;;;;14.59;76.25;100949.41;5006452;28;20070;-67
2021/07/05 04:57:44;;;;;;;24.98;6.20;;;;;;;14.60;76.85;100952.88;5005379;28;20450;-67
2021/07/05 05:00:15;;;;;;;16.60;4.88;;;;;;;14.62;76.13;100953.69;5006615;28;20103;-67
2021/07/05 05:02:41;;;;;;;18.73;4.93;;;;;;;14.63;76.31;100966.78;4993821;28;20065;-67
2021/07/05 05:05:07;;;;;;;18.23;4.72;;;;;;;14.55;76.34;100958.41;5002903;28;20104;-66
2021/07/05 05:07:33;;;;;;;21.58;5.32;;;;;;;14.56;76.41;100948.69;5002937;28;20033;-69
2021/07/05 05:10:02;;;;;;;23.02;5.82;;;;;;;14.69;76.50;100955.97;4994853;28;20387;-66
2021/07/05 05:12:28;;;;;;;17.80;4.88;;;;;;;14.69;76.33;100963.91;5000717;28;20372;-67
2021/07/05 05:14:54;;;;;;;22.15;6.40;;;;;;;14.79;75.97;100960.81;5003094;28;20467;-68
2021/07/05 05:17:19;;;;;;;15.18;4.95;;;;;;;14.86;75.50;100962.25;5015422;28;20033;-67
2021/07/05 05:19:45;;;;;;;17.90;5.15;;;;;;;14.88;75.47;100962.16;5005081;28;20024;-66
2021/07/05 05:22:10;;;;;;;22.23;5.32;;;;;;;14.88;75.22;100960.34;5017598;28;20053;-68
2021/07/05 05:24:35;;;;;;;16.25;4.65;;;;;;;14.88;75.00;100957.72;5003676;28;20014;-66
2021/07/05 05:27:01;;;;;;;18.70;5.20;;;;;;;14.93;75.31;100966.25;4987657;28;20475;-67
2021/07/05 05:29:26;;;;;;;11.65;4.57;;;;;;;14.97;75.21;100962.56;4996858;28;20018;-67
2021/07/05 05:31:51;;;;;;;26.33;5.15;;;;;;;14.99;75.37;100962.47;5000866;28;20695;-67
2021/07/05 05:34:17;;;;;;;14.80;4.43;;;;;;;15.04;75.19;100962.25;4996284;28;20061;-67
2021/07/05 05:36:42;;;;;;;15.55;5.20;;;;;;;14.96;75.27;100968.78;5001120;28;20023;-68
2021/07/05 05:39:07;;;;;;;14.65;5.82;;;;;;;14.98;74.76;100963.41;5005679;28;20032;-69
2021/07/05 05:41:33;;;;;;;17.33;5.32;;;;;;;14.91;75.58;100967.28;5007313;28;20136;-66
2021/07/05 05:44:00;;;;;;;23.08;4.95;;;;;;;14.98;75.24;100969.56;5021914;28;20049;-69
2021/07/05 05:46:32;;;;;;;22.38;5.22;;;;;;;14.96;74.85;100968.78;5001390;28;20033;-66
2021/07/05 05:48:59;;;;;;;13.45;4.50;;;;;;;14.97;74.73;100969.63;5011712;28;20029;-65
2021/07/05 05:51:26;;;;;;;17.25;4.47;;;;;;;14.98;75.17;100960.75;5013880;28;20033;-68
2021/07/05 05:53:52;;;;;;;14.73;4.70;;;;;;;14.97;74.93;100969.63;5005233;28;20045;-68
2021/07/05 05:56:17;;;;;;;16.25;5.10;;;;;;;15.17;74.50;100966.84;5006466;28;20032;-67
2021/07/05 05:58:43;;;;;;;16.42;4.90;;;;;;;15.38;74.15;100968.47;5005395;28;20028;-67
2021/07/05 06:01:08;;;;;;;18.73;4.60;;;;;;;15.56;72.81;100971.97;4992757;28;20057;-67
2021/07/05 06:03:34;;;;;;;18.98;4.25;;;;;;;15.68;71.66;100979.28;5005387;28;20022;-67
2021/07/05 06:06:00;;;;;;;17.63;4.80;;;;;;;15.92;71.59;100977.13;5011744;28;20060;-66
2021/07/05 06:08:25;;;;;;;13.70;4.35;;;;;;;16.20;70.33;100970.38;5008598;28;20384;-66
2021/07/05 06:10:51;;;;;;;22.08;4.10;;;;;;;16.32;69.48;100971.47;5006356;28;20026;-67
2021/07/05 06:13:17;;;;;;;19.08;4.28;;;;;;;16.42;68.78;100972.69;4995615;28;20421;-68
2021/07/05 06:15:42;;;;;;;13.25;3.53;;;;;;;16.52;68.61;100974.81;4994911;28;20453;-68
2021/07/05 06:18:07;;;;;;;17.05;4.22;;;;;;;16.60;68.27;100970.81;4991900;28;20163;-69
2021/07/05 06:20:33;;;;;;;16.73;4.32;;;;;;;16.82;67.53;100972.25;5002893;28;20042;-67
2021/07/05 06:22:58;;;;;;;13.40;3.63;;;;;;;17.13;66.50;100975.81;5005332;28;20459;-67
2021/07/05 06:25:24;;;;;;;13.13;3.80;;;;;;;17.28;66.47;100987.31;5000877;28;20100;-67
2021/07/05 06:27:50;;;;;;;17.25;4.20;;;;;;;17.22;65.88;100975.25;4997548;28;20364;-67
2021/07/05 06:30:15;;;;;;;13.02;3.60;;;;;;;17.04;66.28;100974.56;4974564;28;20026;-67
2021/07/05 06:32:41;;;;;;;18.83;4.53;;;;;;;16.71;66.77;100967.56;5008288;28;20036;-66
2021/07/05 06:35:08;;;;;;;19.63;4.40;;;;;;;16.58;67.85;100978.00;5011826;28;20227;-67
2021/07/05 06:37:34;;;;;;;15.18;4.15;;;;;;;16.71;68.13;100977.31;5008711;28;20113;-67
2021/07/05 06:39:59;;;;;;;17.50;4.20;;;;;;;16.78;66.79;100982.16;4994238;28;20022;-67
2021/07/05 06:42:25;;;;;;;20.88;3.83;;;;;;;16.81;67.14;100986.44;4995375;28;20168;-67
2021/07/05 06:44:50;;;;;;;16.73;4.28;;;;;;;17.14;67.11;100995.22;5009105;28;20467;-66
2021/07/05 06:47:16;;;;;;;14.30;3.03;;;;;;;17.22;65.87;100991.16;4995941;28;20037;-66
2021/07/05 06:49:41;;;;;;;15.50;4.22;;;;;;;17.23;65.44;100989.38;5008361;28;20436;-69
2021/07/05 06:52:07;;;;;;;15.93;4.43;;;;;;;17.16;65.83;100993.34;5006061;28;20018;-67
2021/07/05 06:54:32;;;;;;;14.60;4.28;;;;;;;17.29;66.00;100991.69;5002624;28;20049;-67
2021/07/05 06:56:58;;;;;;;15.00;4.07;;;;;;;17.32;65.97;100982.69;5003711;28;20513;-67
2021/07/05 06:59:23;;;;;;;12.80;4.20;;;;;;;17.48;64.99;100987.94;5005674;28;20079;-67
2021/07/05 07:01:48;;;;;;;14.65;3.83;;;;;;;17.77;65.17;100980.00;5000196;28;20105;-67
2021/07/05 07:04:14;;;;;;;12.82;3.83;;;;;;;17.88;64.06;100983.69;5006759;28;20025;-67
2021/07/05 07:06:39;;;;;;;17.80;4.30;;;;;;;18.09;64.04;100996.63;5008282;28;20021;-66
2021/07/05 07:09:05;;;;;;;20.52;4.57;;;;;;;18.24;62.96;100997.47;5009672;28;20033;-67
2021/07/05 07:11:30;;;;;;;20.50;4.43;;;;;;;18.20;62.92;100999.47;5003294;28;20096;-66
2021/07/05 07:13:56;;;;;;;15.13;3.90;;;;;;;18.18;63.07;101004.03;4999313;28;20030;-67
2021/07/05 07:16:23;;;;;;;13.20;3.63;;;;;;;17.97;63.96;101000.03;5004038;28;20026;-66
2021/07/05 07:21:33;;;;;;;13.93;4.03;;;;;;;17.98;64.08;101004.41;5003928;28;20387;-67
2021/07/05 07:23:58;;;;;;;13.50;4.07;;;;;;;17.79;64.85;101002.00;4997792;28;20022;-67
2021/07/05 07:26:24;;;;;;;18.60;3.90;;;;;;;17.85;64.05;101001.59;4998814;28;20037;-66
2021/07/05 07:28:52;;;;;;;19.77;3.80;;;;;;;17.88;64.90;100996.97;5003526;28;20033;-67
2021/07/05 07:31:19;;;;;;;16.73;4.10;;;;;;;18.10;63.80;101008.09;4998931;28;20014;-67
2021/07/05 07:33:45;;;;;;;13.60;3.97;;;;;;;18.20;63.13;100999.47;5008845;28;20109;-66
2021/07/05 07:36:10;;;;;;;21.52;4.22;;;;;;;18.41;63.10;101003.50;4993579;28;20126;-67
2021/07/05 07:38:40;;;;;;;14.00;4.00;;;;;;;18.68;61.85;101001.75;5001015;28;20393;-67
2021/07/05 07:41:06;;;;;;;18.35;3.35;;;;;;;18.73;61.52;100998.81;5010800;28;20434;-67
2021/07/05 07:43:31;;;;;;;13.48;3.53;;;;;;;18.76;61.01;101005.72;5006636;28;20018;-67
2021/07/05 07:45:57;;;;;;;13.75;4.32;;;;;;;18.74;61.46;101000.50;5023146;28;20033;-68
2021/07/05 07:48:22;;;;;;;16.05;4.05;;;;;;;18.57;61.68;101006.06;5008966;28;20029;-68
2021/07/05 07:50:47;;;;;;;13.65;4.40;;;;;;;18.31;62.03;101014.72;4992719;28;20360;-67
2021/07/05 07:53:12;;;;;;;18.23;4.40;;;;;;;18.22;62.88;101010.84;4994343;28;20553;-67
2021/07/05 07:55:38;;;;;;;17.42;4.80;;;;;;;18.25;62.86;101015.13;4998200;28;20036;-67
2021/07/05 07:58:03;;;;;;;15.00;4.00;;;;;;;18.31;63.08;101012.06;4997716;28;20031;-68
2021/07/05 08:00:31;;;;;;;12.82;4.13;;;;;;;18.23;62.73;101012.56;5001358;28;20033;-67
2021/07/05 08:02:57;;;;;;;16.25;4.35;;;;;;;18.02;64.15;101006.78;5009062;28;20086;-65
2021/07/05 08:05:22;;;;;;;23.75;5.22;;;;;;;18.14;63.75;101013.13;4998072;28;20438;-66
2021/07/05 08:07:48;;;;;;;21.45;5.07;;;;;;;18.32;64.00;101015.56;5005540;28;20165;-65
2021/07/05 08:10:15;;;;;;;18.90;4.47;;;;;;;18.22;64.08;101015.28;4997799;28;20173;-68
2021/07/05 08:12:43;;;;;;;19.15;4.65;;;;;;;18.31;64.53;101014.72;4999882;28;20057;-68
2021/07/05 08:15:09;;;;;;;14.30;4.00;;;;;;;18.42;63.00;101007.88;5001138;28;20029;-67
2021/07/05 08:17:35;;;;;;;21.50;5.20;;;;;;;18.38;62.30;101012.53;5013716;28;20049;-67
2021/07/05 08:20:00;;;;;;;12.43;4.30;;;;;;;18.52;61.20;101009.88;4993907;28;20037;-68
2021/07/05 08:22:25;;;;;;;19.73;4.57;;;;;;;18.61;61.33;101007.56;5000767;28;20161;-68
2021/07/05 08:24:52;;;;;;;18.77;4.03;;;;;;;18.67;60.80;101009.84;4995832;28;20098;-67
2021/07/05 08:27:18;;;;;;;14.23;4.20;;;;;;;18.58;60.83;101013.06;5003745;28;20030;-66
2021/07/05 08:29:43;;;;;;;17.00;4.50;;;;;;;18.20;61.81;101009.25;5002417;28;20080;-67
2021/07/05 08:32:08;;;;;;;14.23;3.88;;;;;;;18.27;62.58;101007.03;5019705;28;20073;-67
2021/07/05 08:34:34;;;;;;;18.05;4.70;;;;;;;18.40;62.39;101000.03;5004137;28;20088;-65
2021/07/05 08:36:59;;;;;;;17.38;4.57;;;;;;;18.57;62.97;101009.56;5005509;28;20057;-67
2021/07/05 08:39:24;;;;;;;10.75;4.00;;;;;;;18.77;61.49;101000.31;5001945;28;20033;-66
2021/07/05 08:41:50;;;;;;;17.33;4.05;;;;;;;18.98;60.77;100998.09;4999596;28;21524;-66
2021/07/05 08:44:15;;;;;;;16.38;4.30;;;;;;;18.92;60.56;100998.50;5000375;28;20026;-67
2021/07/05 08:46:41;;;;;;;15.43;4.28;;;;;;;18.90;61.07;101004.81;5014937;28;20025;-66
2021/07/05 08:49:07;;;;;;;20.63;4.55;;;;;;;18.81;61.62;101004.47;5001842;28;20091;-68
2021/07/05 08:51:32;;;;;;;18.05;4.15;;;;;;;18.71;61.20;101008.69;4997224;28;20132;-68
2021/07/05 08:53:58;;;;;;;17.08;4.10;;;;;;;18.51;63.10;101004.66;4996960;28;20060;-67
2021/07/05 08:56:24;;;;;;;13.98;3.83;;;;;;;18.43;61.99;100996.31;5004879;28;20018;-68
2021/07/05 08:58:51;;;;;;;19.88;4.20;;;;;;;18.23;62.92;101004.59;4996964;28;20332;-68
2021/07/05 09:01:17;;;;;;;12.40;3.30;;;;;;;18.44;63.63;100998.03;5000067;28;20367;-68
2021/07/05 09:03:42;;;;;;;12.82;4.03;;;;;;;18.59;60.88;100996.19;5001984;28;20214;-67
2021/07/05 09:06:11;;;;;;;15.52;3.80;;;;;;;19.56;59.14;101002.25;4999974;28;20364;-67
2021/07/05 09:08:38;;;;;;;14.95;3.75;;;;;;;20.20;56.00;100996.94;4992794;28;20464;-67
2021/07/05 09:11:25;;;;;;;13.88;3.25;;;;;;;20.46;56.21;100991.56;5000319;28;20049;-66
2021/07/05 09:13:52;;;;;;;15.27;3.95;;;;;;;21.25;54.41;100991.13;4994488;28;20061;-67
2021/07/05 09:16:28;;;;;;;14.05;3.75;;;;;;;21.17;53.61;100993.53;5000135;28;20018;-68
2021/07/05 09:18:54;;;;;;;13.30;3.92;;;;;;;20.94;53.67;100990.78;5001289;28;20026;-67
2021/07/05 09:21:22;;;;;;;10.43;2.95;;;;;;;21.01;54.14;100997.34;5015519;28;20080;-68
2021/07/05 09:24:01;;;;;;;12.05;3.53;;;;;;;21.07;53.92;100996.03;4997638;28;20364;-67
2021/07/05 09:26:40;;;;;;;13.90;3.40;;;;;;;21.07;54.31;100999.56;4999628;28;20047;-67
2021/07/05 09:29:26;;;;;;;14.55;3.53;;;;;;;21.08;53.98;100984.41;5000645;28;20030;-68
2021/07/05 09:32:00;;;;;;;13.32;3.13;;;;;;;20.53;54.78;100997.28;5003273;28;20097;-68
2021/07/05 09:34:28;;;;;;;15.38;4.65;;;;;;;19.79;56.65;100985.53;5005559;28;20029;-67
2021/07/05 09:37:19;;;;;;;14.50;4.03;;;;;;;19.87;58.84;101002.81;5020425;28;20140;-68
2021/07/05 09:40:07;;;;;;;10.70;2.95;;;;;;;20.42;55.12;100990.94;5001544;28;20080;-67
2021/07/05 09:42:34;;;;;;;11.05;3.08;;;;;;;20.52;54.21;100999.09;4996517;28;20610;-67
2021/07/05 09:45:05;;;;;;;11.82;3.47;;;;;;;20.55;54.25;100992.69;5001119;28;20021;-67
2021/07/05 09:47:31;;;;;;;10.45;3.33;;;;;;;20.23;54.95;100991.41;4990774;28;20022;-66
2021/07/05 09:50:16;;;;;;;14.55;3.80;;;;;;;20.25;53.29;100992.13;5007896;28;20752;-67
2021/07/05 09:52:43;;;;;;;11.80;3.33;;;;;;;20.78;52.93;100991.91;5014030;28;20109;-68
2021/07/05 09:55:17;;;;;;;11.10;3.15;;;;;;;21.33;51.04;101003.88;5005369;28;20391;-68
2021/07/05 09:57:45;;;;;;;9.75;3.35;;;;;;;21.95;50.45;100991.16;4996908;28;20029;-68
2021/07/05 10:00:10;;;;;;;10.90;3.13;;;;;;;22.00;49.50;100991.66;4992447;28;20668;-67
2021/07/05 10:02:36;;;;;;;11.50;3.43;;;;;;;21.98;50.08;100989.13;4999723;28;20030;-67
2021/07/05 10:05:35;;;;;;;12.45;3.47;;;;;;;22.04;49.75;100991.28;4999329;28;20033;-67
2021/07/05 10:08:06;;;;;;;9.95;2.90;;;;;;;22.34;50.15;100995.16;4997832;28;20052;-68
2021/07/05 10:10:32;;;;;;;12.82;3.25;;;;;;;22.42;47.87;101004.41;4994878;28;20061;-67
2021/07/05 10:13:00;;;;;;;10.05;3.40;;;;;;;22.16;49.01;100992.13;5004167;28;20455;-68
2021/07/05 10:15:26;;;;;;;13.30;3.40;;;;;;;21.52;49.43;101000.66;5016408;28;20140;-67
2021/07/05 10:17:53;;;;;;;15.80;3.72;;;;;;;21.09;50.45;100999.44;4998852;28;20054;-67
2021/07/05 10:20:31;;;;;;;13.38;3.58;;;;;;;20.29;53.27;100992.75;4990393;28;20398;-67
2021/07/05 10:22:58;;;;;;;11.48;3.22;;;;;;;20.09;53.72;100994.19;4982559;28;20034;-66
2021/07/05 10:25:26;;;;;;;9.75;3.25;;;;;;;20.01;53.98;101002.72;4986308;28;20052;-67
2021/07/05 10:27:52;;;;;;;10.95;3.03;;;;;;;20.10;53.82;100991.41;4987996;28;20029;-67
2021/07/05 10:30:19;;;;;;;9.15;3.00;;;;;;;20.18;53.26;101004.22;5002150;28;20185;-67
2021/07/05 10:32:46;;;;;;;8.73;2.75;;;;;;;20.22;51.78;100999.47;5001568;28;20101;-67
2021/07/05 10:35:14;;;;;;;9.55;2.70;;;;;;;20.50;51.41;101002.84;5000862;28;20071;-67
2021/07/05 10:37:49;;;;;;;10.88;3.55;;;;;;;20.10;51.90;101015.38;4993543;28;20329;-68
2021/07/05 10:40:15;;;;;;;11.60;3.00;;;;;;;19.89;53.00;100998.25;4983531;28;20085;-68
2021/07/05 10:42:44;;;;;;;10.48;2.70;;;;;;;19.60;53.97;101003.75;5002401;28;20143;-68
2021/07/05 10:45:11;;;;;;;17.25;3.10;;;;;;;19.25;54.31;101014.97;5001077;28;20030;-69
2021/07/05 10:47:48;;;;;;;9.10;3.25;;;;;;;19.02;55.50;101014.69;5002411;28;20028;-68
2021/07/05 10:50:45;;;;;;;10.18;2.97;;;;;;;19.08;55.53;101013.44;5008865;28;20502;-68
2021/07/05 10:53:12;;;;;;;12.60;3.33;;;;;;;18.90;58.55;101018.13;4987333;28;20058;-67
2021/07/05 10:55:39;;;;;;;12.25;3.70;;;;;;;18.62;60.34;101025.19;4988724;28;20100;-68
2021/07/05 10:58:14;;;;;;;15.48;3.92;;;;;;;18.25;63.97;101027.56;4993220;28;20156;-68
2021/07/05 11:00:42;;;;;;;15.68;3.97;;;;;;;18.01;66.35;101023.66;5001600;28;20018;-69
2021/07/05 11:03:07;;;;;;;12.10;5.10;;;;;;;17.57;68.42;101024.50;4997797;28;20391;-69
2021/07/05 11:05:45;;;;;;;14.63;5.10;;;;;;;17.57;66.36;101014.72;4998466;28;20040;-68
2021/07/05 11:08:24;;;;;;;15.07;5.15;;;;;;;17.98;66.74;101023.81;4991458;28;20479;-68
2021/07/05 11:11:13;;;;;;;11.55;5.00;;;;;;;18.30;66.36;101022.81;4997328;28;20015;-68
2021/07/05 11:13:38;;;;;;;10.40;4.03;;;;;;;18.78;66.48;101025.06;4994674;28;20057;-67
2021/07/05 11:16:04;;;;;;;9.85;4.28;;;;;;;19.04;65.66;101020.75;4999992;28;20030;-67
2021/07/05 11:18:36;;;;;;;11.13;4.40;;;;;;;19.50;63.12;101024.81;5014211;28;20033;-66